createdAt,value
2023-05-07T00:05:58.710Z,24.9829
2023-05-07T00:21:00.472Z,25.1358
2023-05-07T00:36:02.255Z,25.2429
2023-05-07T00:51:03.983Z,25.2559
2023-05-07T01:06:05.725Z,25.0448
2023-05-07T01:21:07.999Z,25.1748
2023-05-07T01:36:09.778Z,25.0708
2023-05-07T01:51:11.529Z,25.2299
2023-05-07T02:06:13.237Z,25.1748
2023-05-07T02:21:14.983Z,24.7978
2023-05-07T02:36:16.765Z,25.1129
2023-05-07T02:51:18.544Z,25.636
2023-05-07T03:06:20.334Z,25.5939
2023-05-07T03:21:22.074Z,26.0198
2023-05-07T03:36:23.891Z,25.9548
2023-05-07T03:51:25.707Z,25.4348
2023-05-07T04:06:27.422Z,25.7759
2023-05-07T04:21:29.133Z,26.234
2023-05-07T04:36:30.801Z,26.2309
2023-05-07T04:51:32.572Z,25.8867
2023-05-07T05:06:34.336Z,25.8279
2023-05-07T05:21:36.051Z,26.3801
2023-05-07T05:36:37.752Z,26.377
2023-05-07T05:51:39.497Z,26.728
2023-05-07T06:06:41.198Z,26.871
2023-05-07T06:21:42.930Z,26.3318
2023-05-07T06:36:44.705Z,26.52
2023-05-07T06:51:46.463Z,25.6199
2023-05-07T07:06:48.185Z,26.5491
2023-05-07T07:21:49.929Z,25.7957
2023-05-07T07:36:51.620Z,26.195
2023-05-07T07:51:53.367Z,26.104
2023-05-07T08:06:55.121Z,25.6397
2023-05-07T08:21:56.868Z,25.6199
2023-05-07T08:36:58.610Z,26.767
2023-05-07T08:52:00.326Z,26.1789
2023-05-07T09:07:02.007Z,26.221
2023-05-07T09:22:03.714Z,26.3931
2023-05-07T09:37:05.429Z,26.1591
2023-05-07T09:52:07.228Z,25.6589
2023-05-07T10:07:09.039Z,25.9381
2023-05-07T10:22:10.764Z,26.0489
2023-05-07T10:37:12.460Z,26.4259
2023-05-07T10:52:14.133Z,26.0328
2023-05-07T11:07:15.909Z,26.2179
2023-05-07T11:22:17.653Z,25.5679
2023-05-07T11:37:19.359Z,25.753
2023-05-07T11:52:21.059Z,25.9641
2023-05-07T12:07:22.753Z,25.9511
2023-05-07T12:22:24.534Z,26.4129
2023-05-07T12:37:26.375Z,26.546
2023-05-07T12:52:28.198Z,26.0941
2023-05-07T13:07:30.831Z,25.7499
2023-05-07T13:22:32.726Z,25.857
2023-05-07T13:37:34.446Z,25.6589
2023-05-07T13:52:36.149Z,25.6527
2023-05-07T14:07:37.837Z,25.3797
2023-05-07T14:22:39.537Z,25.8997
2023-05-07T14:37:41.224Z,25.8087
2023-05-07T14:52:42.976Z,25.1748
2023-05-07T15:07:45.674Z,25.714
2023-05-07T15:22:48.005Z,25.6199
2023-05-07T15:37:49.765Z,26.156
2023-05-07T15:52:51.475Z,26.1919
2023-05-07T16:07:53.214Z,26.2699
2023-05-07T16:22:54.947Z,25.1779
2023-05-07T16:37:56.670Z,25.428
2023-05-07T16:52:58.385Z,25.1129
2023-05-07T17:08:00.121Z,23.998
2023-05-07T17:23:01.853Z,25.0931
2023-05-07T17:38:03.533Z,25.8372
2023-05-07T17:53:05.305Z,25.7431
2023-05-07T18:08:07.059Z,25.4311
2023-05-07T18:23:08.782Z,26.1071
2023-05-07T18:38:10.472Z,25.922
2023-05-07T18:53:12.240Z,25.1129
2023-05-07T19:08:13.988Z,25.5871
2023-05-07T19:23:15.684Z,25.61
2023-05-07T19:38:17.472Z,25.5122
2023-05-07T19:53:19.190Z,25.5128
2023-05-07T20:08:20.929Z,25.4769
2023-05-07T20:23:22.695Z,25.415
2023-05-07T20:38:24.428Z,25.6589
2023-05-07T20:53:26.113Z,25.61
2023-05-07T21:08:27.835Z,25.7369
2023-05-07T21:23:29.600Z,25.844
2023-05-07T21:38:31.382Z,25.5128
2023-05-07T21:53:33.148Z,25.6688
2023-05-07T22:08:34.848Z,25.7437
2023-05-07T22:23:36.634Z,26.039
2023-05-07T22:38:38.387Z,25.9548
2023-05-07T22:53:40.146Z,26.1139
2023-05-07T23:08:41.924Z,26.0198
2023-05-07T23:23:43.602Z,26.6958
2023-05-07T23:38:45.348Z,26.6209
2023-05-07T23:53:47.092Z,26.7639
